createdAt,value
2018-07-23T00:00:14.560Z,88.29
2018-07-23T00:01:14.502Z,88.42
2018-07-23T00:02:14.661Z,88.31
2018-07-23T00:03:14.590Z,88.33
2018-07-23T00:04:14.526Z,88.34
2018-07-23T00:05:14.516Z,88.17
2018-07-23T00:06:14.600Z,88.18
2018-07-23T00:07:14.517Z,88.02
2018-07-23T00:08:14.500Z,88.28
2018-07-23T00:09:14.579Z,88.26
2018-07-23T00:10:14.498Z,87.98
2018-07-23T00:11:14.520Z,87.97
2018-07-23T00:12:14.525Z,88.14
2018-07-23T00:13:14.506Z,88.01
2018-07-23T00:14:14.564Z,88.17
2018-07-23T00:15:14.530Z,88.12
2018-07-23T00:16:14.501Z,87.98
2018-07-23T00:17:14.525Z,87.99
2018-07-23T00:18:14.513Z,88.09
2018-07-23T00:19:15.486Z,88.18
2018-07-23T00:20:14.556Z,88.24
2018-07-23T00:21:14.535Z,88.44
2018-07-23T00:22:14.546Z,88.53
2018-07-23T00:23:14.583Z,88.49
2018-07-23T00:24:14.582Z,88.54
2018-07-23T00:25:14.608Z,88.58
2018-07-23T00:26:14.516Z,88.48
2018-07-23T00:27:14.523Z,88.55
2018-07-23T00:28:14.535Z,88.27
2018-07-23T00:29:14.532Z,88.34
2018-07-23T00:30:14.580Z,88.22
2018-07-23T00:31:14.546Z,88.22
2018-07-23T00:32:14.522Z,88.25
2018-07-23T00:33:14.559Z,88.19
2018-07-23T00:34:14.826Z,88.19
2018-07-23T00:35:14.527Z,88.13
2018-07-23T00:36:14.544Z,88.29
2018-07-23T00:37:14.539Z,88.29
2018-07-23T00:38:14.546Z,88.18
2018-07-23T00:39:14.590Z,88.44
2018-07-23T00:40:14.541Z,88.33
2018-07-23T00:41:14.518Z,88.04
2018-07-23T00:42:14.528Z,88.12
2018-07-23T00:43:14.577Z,88.04
2018-07-23T00:44:14.555Z,88.05
2018-07-23T00:45:14.559Z,88.17
2018-07-23T00:46:14.547Z,88.1
2018-07-23T00:47:14.561Z,88.42
2018-07-23T00:48:14.538Z,88.46
2018-07-23T00:49:14.548Z,88.52
2018-07-23T00:50:14.557Z,88.7
2018-07-23T00:51:14.615Z,88.87
2018-07-23T00:52:14.586Z,88.53
2018-07-23T00:53:14.595Z,88.74
2018-07-23T00:54:14.590Z,88.89
2018-07-23T00:55:14.573Z,88.75
2018-07-23T00:56:14.521Z,88.92
2018-07-23T00:57:14.582Z,88.83
2018-07-23T00:58:14.579Z,89.01
2018-07-23T00:59:14.563Z,88.92
2018-07-23T01:00:14.739Z,88.92
2018-07-23T01:01:14.593Z,88.89
2018-07-23T01:02:14.562Z,88.74
2018-07-23T01:03:14.583Z,88.53
2018-07-23T01:04:14.786Z,88.47
2018-07-23T01:05:14.561Z,88.61
2018-07-23T01:06:14.564Z,88.59
2018-07-23T01:07:14.541Z,88.58
2018-07-23T01:08:14.581Z,88.51
2018-07-23T01:09:14.613Z,88.51
2018-07-23T01:10:14.588Z,88.74
2018-07-23T01:11:14.577Z,89.16
2018-07-23T01:12:14.585Z,89.34
2018-07-23T01:13:14.549Z,89.22
2018-07-23T01:14:14.589Z,89.11
2018-07-23T01:15:14.596Z,88.96
2018-07-23T01:16:14.686Z,88.86
2018-07-23T01:17:14.594Z,88.8
2018-07-23T01:18:14.531Z,88.63
2018-07-23T01:19:14.641Z,88.66
2018-07-23T01:20:14.561Z,88.58
2018-07-23T01:21:14.588Z,88.74
2018-07-23T01:22:14.658Z,88.61
2018-07-23T01:23:14.602Z,88.59
2018-07-23T01:24:14.587Z,88.94
2018-07-23T01:25:14.675Z,88.83
2018-07-23T01:26:14.577Z,88.75
2018-07-23T01:27:14.591Z,88.51
2018-07-23T01:28:14.626Z,88.95
2018-07-23T01:29:14.614Z,89.11
2018-07-23T01:30:14.558Z,89
2018-07-23T01:31:14.716Z,89.1
2018-07-23T01:32:14.561Z,88.9
2018-07-23T01:33:14.576Z,89.39
2018-07-23T01:34:14.581Z,89.65
2018-07-23T01:35:14.594Z,89.8
2018-07-23T01:36:14.719Z,89.88
2018-07-23T01:37:14.606Z,89.89
2018-07-23T01:38:14.601Z,89.78
2018-07-23T01:39:14.760Z,89.6
2018-07-23T01:40:14.700Z,89.29
2018-07-23T01:41:14.592Z,89.16
2018-07-23T01:42:14.683Z,89.14
2018-07-23T01:43:14.615Z,89.38
2018-07-23T01:44:14.625Z,89.6
2018-07-23T01:45:14.627Z,89.32
2018-07-23T01:46:14.600Z,89.1
2018-07-23T01:47:14.596Z,89.24
2018-07-23T01:48:14.580Z,89.02
2018-07-23T01:49:14.650Z,89.01
2018-07-23T01:50:14.641Z,88.87
2018-07-23T01:51:14.601Z,89.09
2018-07-23T01:52:14.656Z,89.66
2018-07-23T01:53:14.622Z,89.43
2018-07-23T01:54:14.627Z,89.76
2018-07-23T01:55:14.633Z,89.62
2018-07-23T01:56:14.638Z,89.46
2018-07-23T01:57:14.620Z,89.3
2018-07-23T01:58:14.635Z,89.25
2018-07-23T01:59:14.635Z,89.07
2018-07-23T02:00:14.664Z,89.03
2018-07-23T02:01:14.586Z,89.05
2018-07-23T02:02:14.579Z,89.09
2018-07-23T02:03:14.685Z,88.9
2018-07-23T02:04:14.610Z,89.09
2018-07-23T02:05:14.647Z,89.14
2018-07-23T02:06:14.605Z,89.01
2018-07-23T02:07:14.620Z,89.14
2018-07-23T02:08:14.607Z,89.3
2018-07-23T02:09:14.615Z,88.92
2018-07-23T02:10:14.634Z,88.87
2018-07-23T02:11:14.650Z,88.81
2018-07-23T02:12:14.617Z,88.79
2018-07-23T02:13:14.749Z,89.25
2018-07-23T02:14:14.642Z,89.31
2018-07-23T02:15:14.613Z,89.19
2018-07-23T02:16:14.641Z,89.13
2018-07-23T02:17:14.623Z,89.11
2018-07-23T02:18:14.945Z,89.23
2018-07-23T02:19:14.683Z,89.14
2018-07-23T02:20:14.675Z,88.96
2018-07-23T02:21:14.643Z,89.1
2018-07-23T02:22:14.850Z,89.02
2018-07-23T02:23:14.636Z,88.95
2018-07-23T02:24:14.694Z,88.87
2018-07-23T02:25:14.656Z,88.89
2018-07-23T02:26:15.012Z,88.67
2018-07-23T02:27:14.658Z,88.7
2018-07-23T02:28:14.677Z,88.62
2018-07-23T02:29:14.624Z,88.77
2018-07-23T02:30:14.702Z,88.78
2018-07-23T02:31:14.732Z,88.77
2018-07-23T02:32:14.698Z,88.75
2018-07-23T02:33:14.704Z,88.49
2018-07-23T02:34:14.665Z,88.61
2018-07-23T02:35:14.671Z,88.6
2018-07-23T02:36:14.667Z,88.66
2018-07-23T02:37:14.943Z,88.5
2018-07-23T02:38:14.684Z,88.44
2018-07-23T02:39:15.190Z,88.67
2018-07-23T02:40:14.651Z,88.54
2018-07-23T02:41:14.672Z,88.5
2018-07-23T02:42:14.711Z,88.61
2018-07-23T02:43:14.676Z,88.58
2018-07-23T02:44:14.664Z,88.48
2018-07-23T02:45:14.658Z,88.61
2018-07-23T02:46:14.747Z,88.58
2018-07-23T02:47:14.683Z,88.57
2018-07-23T02:48:14.795Z,88.45
2018-07-23T02:49:14.719Z,88.51
2018-07-23T02:50:14.697Z,88.52
2018-07-23T02:51:14.653Z,88.53
2018-07-23T02:52:14.676Z,88.54
2018-07-23T02:53:14.715Z,88.53
2018-07-23T02:54:14.649Z,88.47
2018-07-23T02:55:14.723Z,88.43
2018-07-23T02:56:14.810Z,88.48
2018-07-23T02:57:14.679Z,88.51
2018-07-23T02:58:14.675Z,88.51
2018-07-23T02:59:14.750Z,88.46
2018-07-23T03:00:14.670Z,88.62
2018-07-23T03:01:14.749Z,88.58
2018-07-23T03:02:15.391Z,88.59
2018-07-23T03:03:14.680Z,88.44
2018-07-23T03:04:14.684Z,88.32
2018-07-23T03:05:14.726Z,88.42
2018-07-23T03:06:14.735Z,88.36
2018-07-23T03:07:14.778Z,88.27
2018-07-23T03:08:14.643Z,88.29
2018-07-23T03:09:14.689Z,88.15
2018-07-23T03:10:14.701Z,88.17
2018-07-23T03:11:14.662Z,88.18
2018-07-23T03:12:14.670Z,88.14
2018-07-23T03:13:14.677Z,88.18
2018-07-23T03:14:14.660Z,88.37
2018-07-23T03:15:14.740Z,88.14
2018-07-23T03:16:14.711Z,88.22
2018-07-23T03:17:14.661Z,88.27
2018-07-23T03:18:14.700Z,88.51
2018-07-23T03:19:14.662Z,88.51
2018-07-23T03:20:14.694Z,88.55
2018-07-23T03:21:14.679Z,88.58
2018-07-23T03:22:14.651Z,88.71
2018-07-23T03:23:14.658Z,89.09
2018-07-23T03:24:14.695Z,88.71
2018-07-23T03:25:14.668Z,89
2018-07-23T03:26:14.703Z,88.58
2018-07-23T03:27:14.686Z,88.78
2018-07-23T03:28:14.660Z,88.64
2018-07-23T03:29:14.636Z,88.66
2018-07-23T03:30:14.674Z,88.67
2018-07-23T03:31:14.741Z,88.73
2018-07-23T03:32:14.855Z,88.79
2018-07-23T03:33:16.114Z,88.6
2018-07-23T03:34:15.791Z,88.56
2018-07-23T03:35:14.695Z,88.45
2018-07-23T03:36:14.703Z,88.44
2018-07-23T03:37:14.689Z,88.75
2018-07-23T03:38:14.668Z,88.72
2018-07-23T03:39:14.759Z,88.67
2018-07-23T03:40:14.879Z,88.56
2018-07-23T03:41:14.734Z,88.35
2018-07-23T03:42:14.703Z,88.38
2018-07-23T03:43:14.765Z,88.4
2018-07-23T03:44:14.729Z,88.43
2018-07-23T03:45:14.689Z,88.49
2018-07-23T03:46:14.851Z,88.37
2018-07-23T03:47:14.680Z,88.43
2018-07-23T03:48:14.724Z,88.32
2018-07-23T03:49:14.970Z,88.34
2018-07-23T03:50:14.793Z,88.39
2018-07-23T03:51:14.719Z,88.37
2018-07-23T03:52:14.763Z,88.35
2018-07-23T03:53:14.878Z,88.37
2018-07-23T03:54:14.756Z,88.56
2018-07-23T03:55:14.811Z,88.39
2018-07-23T03:56:14.700Z,88.32
2018-07-23T03:57:14.695Z,88.22
2018-07-23T03:58:14.759Z,88.43
2018-07-23T03:59:15.017Z,88.42
2018-07-23T04:00:14.696Z,88.22
2018-07-23T04:01:14.848Z,88.24
2018-07-23T04:02:14.668Z,88.3
2018-07-23T04:03:14.670Z,88.42
2018-07-23T04:04:14.921Z,88.53
2018-07-23T04:05:15.436Z,88.22
2018-07-23T04:06:14.696Z,88.33
2018-07-23T04:07:14.776Z,88.35
2018-07-23T04:08:14.741Z,88.29
2018-07-23T04:09:14.757Z,88.24
2018-07-23T04:10:14.708Z,88.13
2018-07-23T04:11:14.774Z,88.11
2018-07-23T04:12:14.713Z,88.1
2018-07-23T04:13:14.737Z,88.15
2018-07-23T04:14:14.734Z,88.13
2018-07-23T04:15:14.811Z,88.41
2018-07-23T04:16:14.955Z,88.38
2018-07-23T04:17:14.777Z,88.4
2018-07-23T04:18:14.749Z,88.35
2018-07-23T04:19:14.704Z,88.51
2018-07-23T04:20:14.678Z,88.45
2018-07-23T04:21:14.720Z,88.43
2018-07-23T04:22:14.721Z,88.65
2018-07-23T04:23:14.718Z,88.48
2018-07-23T04:24:14.806Z,88.84
2018-07-23T04:25:14.718Z,88.88
2018-07-23T04:26:14.798Z,88.92
2018-07-23T04:27:14.684Z,88.83
2018-07-23T04:28:14.735Z,88.93
2018-07-23T04:29:14.741Z,88.68
2018-07-23T04:30:14.712Z,88.71
2018-07-23T04:31:14.711Z,88.55
2018-07-23T04:32:14.763Z,88.65
2018-07-23T04:33:14.690Z,88.69
2018-07-23T04:34:14.741Z,88.94
2018-07-23T04:35:14.786Z,88.9
2018-07-23T04:36:15.059Z,88.86
2018-07-23T04:37:14.736Z,88.55
2018-07-23T04:38:14.736Z,88.66
2018-07-23T04:39:14.810Z,88.63
2018-07-23T04:40:14.734Z,88.59
2018-07-23T04:41:14.724Z,88.68
2018-07-23T04:42:14.953Z,88.9
2018-07-23T04:43:14.759Z,89.05
2018-07-23T04:44:14.715Z,88.82
2018-07-23T04:45:14.752Z,89.13
2018-07-23T04:46:14.890Z,89.33
2018-07-23T04:47:14.728Z,89.13
2018-07-23T04:48:14.700Z,88.86
2018-07-23T04:49:15.142Z,88.82
2018-07-23T04:50:14.738Z,88.75
2018-07-23T04:51:14.715Z,88.76
2018-07-23T04:52:14.819Z,88.74
2018-07-23T04:53:14.868Z,88.61
2018-07-23T04:54:14.762Z,88.53
2018-07-23T04:55:14.732Z,88.61
2018-07-23T04:56:14.743Z,88.51
2018-07-23T04:57:15.077Z,88.51
2018-07-23T04:58:14.729Z,88.43
2018-07-23T04:59:14.745Z,88.49
2018-07-23T05:00:14.743Z,88.59
2018-07-23T05:01:14.812Z,88.46
2018-07-23T05:02:14.802Z,88.5
2018-07-23T05:03:14.752Z,88.46
2018-07-23T05:04:14.799Z,88.38
2018-07-23T05:05:14.822Z,88.42
2018-07-23T05:06:14.821Z,88.34
2018-07-23T05:07:14.791Z,88.29
2018-07-23T05:08:14.823Z,88.39
2018-07-23T05:09:14.729Z,88.54
2018-07-23T05:10:14.801Z,88.4
2018-07-23T05:11:14.819Z,88.32
2018-07-23T05:12:14.759Z,88.5
2018-07-23T05:13:14.742Z,88.28
2018-07-23T05:14:14.892Z,88.37
2018-07-23T05:15:14.786Z,88.39
2018-07-23T05:16:14.757Z,88.42
2018-07-23T05:17:14.809Z,88.44
2018-07-23T05:18:14.808Z,88.3
2018-07-23T05:19:14.722Z,88.75
2018-07-23T05:20:14.748Z,88.66
2018-07-23T05:21:14.836Z,88.52
2018-07-23T05:22:14.796Z,88.49
2018-07-23T05:23:14.738Z,88.4
2018-07-23T05:24:14.785Z,88.42
2018-07-23T05:25:14.856Z,88.65
2018-07-23T05:26:15.100Z,88.51
2018-07-23T05:27:15.453Z,88.4
2018-07-23T05:28:14.788Z,88.49
2018-07-23T05:29:14.807Z,88.45
2018-07-23T05:30:14.733Z,88.33
2018-07-23T05:31:14.828Z,88.28
2018-07-23T05:32:14.771Z,88.23
2018-07-23T05:33:14.825Z,88.27
2018-07-23T05:34:14.795Z,88.24
2018-07-23T05:35:14.787Z,88.17
2018-07-23T05:36:14.727Z,88.37
2018-07-23T05:37:14.765Z,88.06
2018-07-23T05:38:14.925Z,88.09
2018-07-23T05:39:14.844Z,87.95
2018-07-23T05:40:14.892Z,88.21
2018-07-23T05:41:14.791Z,88.12
2018-07-23T05:42:14.791Z,88.01
2018-07-23T05:43:14.816Z,88.07
2018-07-23T05:44:14.803Z,87.97
2018-07-23T05:45:14.757Z,87.86
2018-07-23T05:46:14.997Z,87.96
2018-07-23T05:47:14.776Z,87.61
2018-07-23T05:48:14.759Z,87.66
2018-07-23T05:49:14.757Z,87.65
2018-07-23T05:50:14.751Z,87.7
2018-07-23T05:51:14.762Z,87.73
2018-07-23T05:52:14.804Z,87.94
2018-07-23T05:53:14.748Z,87.74
2018-07-23T05:54:14.852Z,87.61
2018-07-23T05:55:14.784Z,87.64
2018-07-23T05:56:14.848Z,87.54
2018-07-23T05:57:14.798Z,87.54
2018-07-23T05:58:14.761Z,87.51
2018-07-23T05:59:14.788Z,87.11
2018-07-23T06:00:14.792Z,87.68
2018-07-23T06:01:14.789Z,87.57
2018-07-23T06:02:14.836Z,87.45
2018-07-23T06:03:14.766Z,87.68
2018-07-23T06:04:14.786Z,87.57
2018-07-23T06:05:14.756Z,87.75
2018-07-23T06:06:14.942Z,87.86
2018-07-23T06:07:14.767Z,88.1
2018-07-23T06:08:14.910Z,88.49
2018-07-23T06:09:14.955Z,88.41
2018-07-23T06:10:15.145Z,88.24
2018-07-23T06:11:14.806Z,88.18
2018-07-23T06:12:14.804Z,88.01
2018-07-23T06:13:15.172Z,88.11
2018-07-23T06:14:14.846Z,88.17
2018-07-23T06:15:14.804Z,87.9
2018-07-23T06:16:14.772Z,87.85
2018-07-23T06:17:14.785Z,87.87
2018-07-23T06:18:14.781Z,88.62
2018-07-23T06:19:14.827Z,88.34
2018-07-23T06:20:14.859Z,88.2
2018-07-23T06:21:15.018Z,88.16
2018-07-23T06:22:14.848Z,88.19
2018-07-23T06:23:14.948Z,88.65
2018-07-23T06:24:14.795Z,89.08
2018-07-23T06:25:14.988Z,88.59
2018-07-23T06:26:14.894Z,88.52
2018-07-23T06:27:14.839Z,89.25
2018-07-23T06:28:14.820Z,89.39
2018-07-23T06:29:14.868Z,88.93
2018-07-23T06:30:15.052Z,89.04
2018-07-23T06:31:14.792Z,88.73
2018-07-23T06:32:15.254Z,89.17
2018-07-23T06:33:14.806Z,89.19
2018-07-23T06:34:14.815Z,89.04
2018-07-23T06:35:14.769Z,89.37
2018-07-23T06:36:14.823Z,88.89
2018-07-23T06:37:14.816Z,89.2
2018-07-23T06:38:14.955Z,89.23
2018-07-23T06:39:14.856Z,90.22
2018-07-23T06:40:15.574Z,89.92
2018-07-23T06:41:14.779Z,89.6
2018-07-23T06:42:15.785Z,89.27
2018-07-23T06:43:15.033Z,89.89
2018-07-23T06:44:14.811Z,90.21
2018-07-23T06:45:14.836Z,90.45
2018-07-23T06:46:14.904Z,89.79
2018-07-23T06:47:14.820Z,89.8
2018-07-23T06:48:14.842Z,89.61
2018-07-23T06:49:15.076Z,89.52
2018-07-23T06:50:14.836Z,89.37
2018-07-23T06:51:14.826Z,90.36
2018-07-23T06:52:15.050Z,90.03
2018-07-23T06:53:14.825Z,89.69
2018-07-23T06:54:15.074Z,89.52
2018-07-23T06:55:14.803Z,89.47
2018-07-23T06:56:14.810Z,89.43
2018-07-23T06:57:14.896Z,89.45
2018-07-23T06:58:14.830Z,89.59
2018-07-23T06:59:15.000Z,89.49
2018-07-23T07:00:15.130Z,89.44
2018-07-23T07:01:14.845Z,88.92
2018-07-23T07:02:14.895Z,88.92
2018-07-23T07:03:15.138Z,89
2018-07-23T07:04:14.847Z,89.42
2018-07-23T07:05:15.028Z,89.93
2018-07-23T07:06:15.022Z,89.52
2018-07-23T07:07:14.789Z,89.5
2018-07-23T07:08:14.847Z,88.9
2018-07-23T07:09:14.803Z,89.01
2018-07-23T07:10:14.872Z,88.9
2018-07-23T07:11:14.817Z,88.64
2018-07-23T07:12:14.875Z,88.7
2018-07-23T07:13:14.841Z,88.61
2018-07-23T07:14:14.933Z,88.49
2018-07-23T07:15:14.821Z,88.65
2018-07-23T07:16:14.899Z,89.17
2018-07-23T07:17:14.897Z,89.27
2018-07-23T07:18:14.835Z,89.58
2018-07-23T07:19:14.834Z,88.83
2018-07-23T07:20:23.954Z,88.48
2018-07-23T07:21:14.858Z,88.04
2018-07-23T07:22:14.855Z,88.23
2018-07-23T07:23:14.844Z,87.85
2018-07-23T07:24:14.861Z,87.79
2018-07-23T07:25:14.873Z,87.51
2018-07-23T07:26:14.864Z,87.97
2018-07-23T07:27:14.812Z,87.37
2018-07-23T07:28:15.017Z,87.71
2018-07-23T07:29:15.015Z,87.77
2018-07-23T07:30:15.045Z,87.69
2018-07-23T07:31:14.904Z,87.58
2018-07-23T07:32:15.039Z,87.77
2018-07-23T07:33:15.042Z,87.65
2018-07-23T07:34:14.848Z,87.68
2018-07-23T07:35:15.168Z,87.77
2018-07-23T07:36:14.882Z,88.44
2018-07-23T07:37:15.049Z,87.82
2018-07-23T07:38:15.116Z,87.34
2018-07-23T07:39:14.870Z,86.85
2018-07-23T07:40:14.851Z,86.76
2018-07-23T07:41:14.972Z,86.63
2018-07-23T07:42:14.945Z,87.86
2018-07-23T07:43:14.984Z,88
2018-07-23T07:44:14.828Z,87.4
2018-07-23T07:45:14.950Z,87.06
2018-07-23T07:46:14.825Z,88.12
2018-07-23T07:47:14.978Z,87.86
2018-07-23T07:48:14.921Z,87.44
2018-07-23T07:49:15.057Z,86.88
2018-07-23T07:50:14.983Z,87.06
2018-07-23T07:51:14.836Z,86.98
2018-07-23T07:52:15.104Z,86.96
2018-07-23T07:53:14.852Z,87.06
2018-07-23T07:54:14.971Z,87.69
2018-07-23T07:55:14.998Z,87.55
2018-07-23T07:56:15.264Z,87.3
2018-07-23T07:57:14.913Z,86.82
2018-07-23T07:58:14.910Z,87.52
2018-07-23T07:59:15.348Z,87.31
2018-07-23T08:00:14.917Z,86.83
2018-07-23T08:01:15.041Z,87.12
2018-07-23T08:02:14.976Z,86.43
2018-07-23T08:03:14.878Z,86.58
2018-07-23T08:04:14.991Z,86.35
2018-07-23T08:05:14.937Z,86
2018-07-23T08:06:15.006Z,86.27
2018-07-23T08:07:15.224Z,86.5
2018-07-23T08:08:15.013Z,86.29
2018-07-23T08:09:14.989Z,85.64
2018-07-23T08:10:14.914Z,85.23
2018-07-23T08:11:14.905Z,84.96
2018-07-23T08:12:14.883Z,84.33
2018-07-23T08:13:14.880Z,84.67
2018-07-23T08:14:15.130Z,84.46
2018-07-23T08:15:14.854Z,84.19
2018-07-23T08:16:14.858Z,84.16
2018-07-23T08:17:15.111Z,83.91
2018-07-23T08:18:14.959Z,82.39
2018-07-23T08:19:14.931Z,84.17
2018-07-23T08:20:15.015Z,83.19
2018-07-23T08:21:14.940Z,83.1
2018-07-23T08:22:14.993Z,83.23
2018-07-23T08:23:14.892Z,82.24
2018-07-23T08:24:14.937Z,82.19
2018-07-23T08:25:15.322Z,82.8
2018-07-23T08:26:14.974Z,82.6
2018-07-23T08:27:15.024Z,81.87
2018-07-23T08:28:14.896Z,82.36
2018-07-23T08:29:14.852Z,82.83
2018-07-23T08:30:14.905Z,81.87
2018-07-23T08:31:15.011Z,81.31
2018-07-23T08:32:15.171Z,81.89
2018-07-23T08:33:14.986Z,82.05
2018-07-23T08:34:14.935Z,82.46
2018-07-23T08:35:14.895Z,81.33
2018-07-23T08:36:14.893Z,81.33
2018-07-23T08:37:15.200Z,81.62
2018-07-23T08:38:15.998Z,81.56
2018-07-23T08:39:14.911Z,81.5
2018-07-23T08:40:14.874Z,81.74
2018-07-23T08:41:14.939Z,81.07
2018-07-23T08:42:14.992Z,81.03
2018-07-23T08:43:14.922Z,81.4
2018-07-23T08:44:14.958Z,80.09
2018-07-23T08:45:15.024Z,79.44
2018-07-23T08:46:14.899Z,80.65
2018-07-23T08:47:15.096Z,80.61
2018-07-23T08:48:14.881Z,80.27
2018-07-23T08:49:14.939Z,79.47
2018-07-23T08:50:15.007Z,78.99
2018-07-23T08:51:15.050Z,79.48
2018-07-23T08:52:15.063Z,78.89
2018-07-23T08:53:14.889Z,78.93
2018-07-23T08:54:15.000Z,77.33
2018-07-23T08:55:14.912Z,77.87
2018-07-23T08:56:15.281Z,77.95
2018-07-23T08:57:15.102Z,78.28
2018-07-23T08:58:14.998Z,79.3
2018-07-23T08:59:15.006Z,79.46
2018-07-23T09:00:14.860Z,79.44
2018-07-23T09:01:14.886Z,79.52
2018-07-23T09:02:15.903Z,78.94
2018-07-23T09:03:14.979Z,78.96
2018-07-23T09:04:14.980Z,78.52
2018-07-23T09:05:15.001Z,78.65
2018-07-23T09:06:15.048Z,79.16
2018-07-23T09:07:15.135Z,76.65
2018-07-23T09:08:14.990Z,77.57
2018-07-23T09:09:15.002Z,76.28
2018-07-23T09:10:15.006Z,74.07
2018-07-23T09:11:15.016Z,73.37
2018-07-23T09:12:15.061Z,73.8
2018-07-23T09:13:14.932Z,74.07
2018-07-23T09:14:14.881Z,73.72
2018-07-23T09:15:14.955Z,73.97
2018-07-23T09:16:14.955Z,75.36
2018-07-23T09:17:15.243Z,75.48
2018-07-23T09:18:14.916Z,73.22
2018-07-23T09:19:14.944Z,73.26
2018-07-23T09:20:15.011Z,72.99
2018-07-23T09:21:15.283Z,72.97
2018-07-23T09:22:15.347Z,72.86
2018-07-23T09:23:14.990Z,73.28
2018-07-23T09:24:14.991Z,74.24
2018-07-23T09:25:15.018Z,73.61
2018-07-23T09:26:15.028Z,72.47
2018-07-23T09:27:15.093Z,72.21
2018-07-23T09:28:14.997Z,72.72
2018-07-23T09:29:15.022Z,73.89
2018-07-23T09:30:15.492Z,72.7
2018-07-23T09:31:15.074Z,72.53
2018-07-23T09:32:14.999Z,74.03
2018-07-23T09:33:14.914Z,73.99
2018-07-23T09:34:15.172Z,72.72
2018-07-23T09:35:15.124Z,72.58
2018-07-23T09:36:14.995Z,71.51
2018-07-23T09:37:15.601Z,71.5
2018-07-23T09:38:16.047Z,72.08
2018-07-23T09:39:14.950Z,71.49
2018-07-23T09:40:15.025Z,71.17
2018-07-23T09:41:15.741Z,70.05
2018-07-23T09:42:14.960Z,69.79
2018-07-23T09:43:14.946Z,70.96
2018-07-23T09:44:14.953Z,72.53
2018-07-23T09:45:14.934Z,72.92
2018-07-23T09:46:14.932Z,72.46
2018-07-23T09:47:14.995Z,71.4
2018-07-23T09:48:14.972Z,69.24
2018-07-23T09:49:14.928Z,69.3
2018-07-23T09:50:14.902Z,69.11
2018-07-23T09:51:14.995Z,70.31
2018-07-23T09:52:14.997Z,69.58
2018-07-23T09:53:14.945Z,71.13
2018-07-23T09:54:15.042Z,71.67
2018-07-23T09:55:15.020Z,69.81
2018-07-23T09:56:15.032Z,70.01
2018-07-23T09:57:15.017Z,70.48
2018-07-23T09:58:15.048Z,70.84
2018-07-23T09:59:15.060Z,71.14
2018-07-23T10:00:14.984Z,71.23
2018-07-23T10:01:14.981Z,70.45
2018-07-23T10:02:15.102Z,68.99
2018-07-23T10:03:15.831Z,70.29
2018-07-23T10:04:15.008Z,70.5
2018-07-23T10:05:15.019Z,70.44
2018-07-23T10:06:14.977Z,69.22
2018-07-23T10:07:15.126Z,69.2
2018-07-23T10:08:15.023Z,69.79
2018-07-23T10:09:14.939Z,69.36
2018-07-23T10:10:15.021Z,67.47
2018-07-23T10:11:15.103Z,67.91
2018-07-23T10:12:15.017Z,67.52
2018-07-23T10:13:14.967Z,67.85
2018-07-23T10:14:14.980Z,66.69
2018-07-23T10:15:15.035Z,67.05
2018-07-23T10:16:14.961Z,68.09
2018-07-23T10:17:14.993Z,67.81
2018-07-23T10:18:15.371Z,68.74
2018-07-23T10:19:14.984Z,68.58
2018-07-23T10:20:16.229Z,68.49
2018-07-23T10:21:14.979Z,68.07
2018-07-23T10:22:15.262Z,67.85
2018-07-23T10:23:15.290Z,67.74
2018-07-23T10:24:15.034Z,68.47
2018-07-23T10:25:15.872Z,68.46
2018-07-23T10:26:14.965Z,67.25
2018-07-23T10:27:15.009Z,66.56
2018-07-23T10:28:15.052Z,66.04
2018-07-23T10:29:14.992Z,67.04
2018-07-23T10:30:14.990Z,67.38
2018-07-23T10:31:15.038Z,67.39
2018-07-23T10:32:15.166Z,64.73
2018-07-23T10:33:15.100Z,63.85
2018-07-23T10:34:15.013Z,63.02
2018-07-23T10:35:15.483Z,62.93
2018-07-23T10:36:15.058Z,63.11
2018-07-23T10:37:15.073Z,63.85
2018-07-23T10:38:15.150Z,63.06
2018-07-23T10:39:16.122Z,62.96
2018-07-23T10:40:15.005Z,63.96
2018-07-23T10:41:15.366Z,64.05
2018-07-23T10:42:15.018Z,64.75
2018-07-23T10:43:14.976Z,63.54
2018-07-23T10:44:15.095Z,63.53
2018-07-23T10:45:20.489Z,63.43
2018-07-23T10:46:15.066Z,63.3
2018-07-23T10:47:15.064Z,63.27
2018-07-23T10:48:15.016Z,63.61
2018-07-23T10:49:15.414Z,62.62
2018-07-23T10:50:16.958Z,62.76
2018-07-23T10:51:15.931Z,63.28
2018-07-23T10:52:16.506Z,63.15
2018-07-23T10:53:15.000Z,60.94
2018-07-23T10:54:15.013Z,63.21
2018-07-23T10:55:14.956Z,62.71
2018-07-23T10:56:14.969Z,62.13
2018-07-23T10:57:15.273Z,62.22
2018-07-23T10:58:15.624Z,62.46
2018-07-23T10:59:14.986Z,62.02
2018-07-23T11:00:16.618Z,61.48
2018-07-23T11:01:15.003Z,60.79
2018-07-23T11:02:15.734Z,61.36
2018-07-23T11:03:15.002Z,60.08
2018-07-23T11:04:15.195Z,61.41
2018-07-23T11:05:14.995Z,59.62
2018-07-23T11:06:16.419Z,60.25
2018-07-23T11:07:15.170Z,61.12
2018-07-23T11:08:15.029Z,60.61
2018-07-23T11:09:15.001Z,59.09
2018-07-23T11:10:15.046Z,59.7
2018-07-23T11:11:15.041Z,60.72
2018-07-23T11:12:15.147Z,59.71
2018-07-23T11:13:15.075Z,60.4
2018-07-23T11:14:15.091Z,59.64
2018-07-23T11:15:15.135Z,58.91
2018-07-23T11:16:15.016Z,58.72
2018-07-23T11:17:15.092Z,56.85
2018-07-23T11:18:15.189Z,56.51
2018-07-23T11:19:15.690Z,57.69
2018-07-23T11:20:15.175Z,57.98
2018-07-23T11:21:15.028Z,56.5
2018-07-23T11:22:15.022Z,56.78
2018-07-23T11:23:15.039Z,55.66
2018-07-23T11:24:15.214Z,56.89
2018-07-23T11:25:41.196Z,55.31
2018-07-23T11:26:15.163Z,53.83
2018-07-23T11:27:15.126Z,55.02
2018-07-23T11:28:15.775Z,53.67
2018-07-23T11:29:15.035Z,55.54
2018-07-23T11:30:15.148Z,53.66
2018-07-23T11:31:15.557Z,54.4
2018-07-23T11:32:15.886Z,54.02
2018-07-23T11:33:15.021Z,54.59
2018-07-23T11:34:20.607Z,51.55
2018-07-23T11:35:15.083Z,52.35
2018-07-23T11:36:15.016Z,51.48
2018-07-23T11:37:15.013Z,50.06
2018-07-23T11:38:15.001Z,50.11
2018-07-23T11:39:15.072Z,48.7
2018-07-23T11:40:15.183Z,52.42
2018-07-23T11:41:15.186Z,52.92
2018-07-23T11:42:15.067Z,51.99
2018-07-23T11:43:15.091Z,51.08
2018-07-23T11:44:15.109Z,53.64
2018-07-23T11:45:15.583Z,53.04
2018-07-23T11:46:25.421Z,50.49
2018-07-23T11:47:15.301Z,52.3
2018-07-23T11:48:15.064Z,48.58
2018-07-23T11:49:15.135Z,48
2018-07-23T11:50:15.108Z,48.91
2018-07-23T11:51:15.332Z,49.93
2018-07-23T11:52:15.052Z,49.05
2018-07-23T11:53:15.151Z,48.8
2018-07-23T11:54:15.041Z,48.92
2018-07-23T11:55:15.018Z,50.78
2018-07-23T11:56:15.087Z,49.34
2018-07-23T11:57:15.095Z,48.97
2018-07-23T11:58:15.074Z,48.46
2018-07-23T11:59:15.055Z,51.02
2018-07-23T12:00:15.263Z,49
2018-07-23T12:01:15.092Z,48.37
2018-07-23T12:02:15.273Z,50.79
2018-07-23T12:03:15.029Z,48.53
2018-07-23T12:04:15.341Z,49.94
2018-07-23T12:05:15.049Z,50.38
2018-07-23T12:06:15.052Z,51.02
2018-07-23T12:07:15.097Z,48.98
2018-07-23T12:08:15.050Z,48.96
2018-07-23T12:09:15.051Z,48.46
2018-07-23T12:10:15.071Z,46.68
2018-07-23T12:11:15.076Z,47.64
2018-07-23T12:12:15.108Z,47.19
2018-07-23T12:13:15.110Z,47.05
2018-07-23T12:14:15.108Z,46.63
2018-07-23T12:15:15.217Z,47.62
2018-07-23T12:16:15.068Z,48.03
2018-07-23T12:17:15.312Z,46.79
2018-07-23T12:18:15.058Z,44.78
2018-07-23T12:19:15.042Z,44.22
2018-07-23T12:20:15.055Z,46.05
2018-07-23T12:21:15.212Z,43.94
2018-07-23T12:22:15.054Z,46.92
2018-07-23T12:23:15.075Z,46.22
2018-07-23T12:24:15.090Z,46.26
2018-07-23T12:25:15.091Z,47.24
2018-07-23T12:26:15.100Z,47.68
2018-07-23T12:27:15.116Z,48.01
2018-07-23T12:28:15.271Z,46.61
2018-07-23T12:29:15.192Z,45.5
2018-07-23T12:30:15.166Z,46.73
2018-07-23T12:31:15.118Z,46.97
2018-07-23T12:32:15.103Z,46.55
2018-07-23T12:33:15.402Z,41.11
2018-07-23T12:34:15.061Z,41.43
2018-07-23T12:35:15.127Z,41.99
2018-07-23T12:36:15.222Z,42.48
2018-07-23T12:37:15.079Z,42.41
2018-07-23T12:38:16.145Z,41.31
2018-07-23T12:39:15.179Z,42.9
2018-07-23T12:40:15.126Z,41.36
2018-07-23T12:41:15.308Z,42.97
2018-07-23T12:42:15.178Z,42.15
2018-07-23T12:43:15.109Z,41.13
2018-07-23T12:44:15.711Z,42.12
2018-07-23T12:45:15.271Z,43.25
2018-07-23T12:46:15.287Z,43.38
2018-07-23T12:47:15.131Z,41.75
2018-07-23T12:48:15.090Z,42.2
2018-07-23T12:49:15.125Z,41.1
2018-07-23T12:50:15.104Z,42.98
2018-07-23T12:51:15.208Z,44.73
2018-07-23T12:52:15.149Z,44.98
2018-07-23T12:53:15.082Z,44.03
2018-07-23T12:54:15.166Z,41.96
2018-07-23T12:55:15.127Z,42.9